createdAt,value
2022-11-08T00:01:07.387Z,100450.46
2022-11-08T00:03:35.779Z,100453.36
2022-11-08T00:06:22.468Z,100452.85
2022-11-08T00:09:09.113Z,100451.69
2022-11-08T00:11:55.543Z,100447.95
2022-11-08T00:14:24.137Z,100446.24
2022-11-08T00:16:53.015Z,100447.46
2022-11-08T00:19:21.458Z,100444.04
2022-11-08T00:21:49.944Z,100447.63
2022-11-08T00:24:18.883Z,100445.92
2022-11-08T00:26:47.122Z,100445.59
2022-11-08T00:29:15.628Z,100448.65
2022-11-08T00:31:45.514Z,100451.71
2022-11-08T00:34:14.243Z,100451.04
2022-11-08T00:36:42.670Z,100452.91
2022-11-08T00:39:11.566Z,100452.23
2022-11-08T00:41:40.023Z,100456.83
2022-11-08T00:44:08.955Z,100453.09
2022-11-08T00:46:38.406Z,100453.76
2022-11-08T00:49:07.239Z,100450.70
2022-11-08T00:51:36.657Z,100453.23
2022-11-08T00:54:07.877Z,100451.20
2022-11-08T00:56:36.434Z,100451.19
2022-11-08T00:59:04.772Z,100447.11
2022-11-08T01:01:33.579Z,100450.00
2022-11-08T01:04:02.291Z,100447.62
2022-11-08T01:06:31.074Z,100447.45
2022-11-08T01:08:59.778Z,100448.65
2022-11-08T01:11:28.708Z,100449.16
2022-11-08T01:13:59.683Z,100449.99
2022-11-08T01:16:30.563Z,100448.13
2022-11-08T01:18:59.668Z,100441.13
2022-11-08T01:21:29.397Z,100443.86
2022-11-08T01:23:58.077Z,100443.86
2022-11-08T01:26:28.025Z,100440.79
2022-11-08T01:28:57.913Z,100438.91
2022-11-08T01:31:28.915Z,100441.65
2022-11-08T01:33:58.480Z,100439.77
2022-11-08T01:36:28.119Z,100437.70
2022-11-08T01:38:57.323Z,100435.82
2022-11-08T01:41:27.486Z,100432.08
2022-11-08T01:43:57.953Z,100433.95
2022-11-08T01:46:36.394Z,100434.96
2022-11-08T01:49:20.379Z,100435.98
2022-11-08T01:51:55.236Z,100432.06
2022-11-08T01:54:31.387Z,100430.36
2022-11-08T01:57:02.893Z,100431.73
2022-11-08T01:59:32.631Z,100430.86
2022-11-08T02:02:02.095Z,100432.74
2022-11-08T02:04:30.879Z,100432.23
2022-11-08T02:07:00.805Z,100435.98
2022-11-08T02:09:30.668Z,100432.91
2022-11-08T02:11:59.573Z,100432.73
2022-11-08T02:14:28.439Z,100432.21
2022-11-08T02:16:57.228Z,100430.52
2022-11-08T02:19:36.684Z,100427.09
2022-11-08T02:22:12.782Z,100427.78
2022-11-08T02:24:41.986Z,100429.64
2022-11-08T02:27:12.385Z,100426.23
2022-11-08T02:29:40.970Z,100428.45
2022-11-08T02:32:10.674Z,100430.16
2022-11-08T02:34:43.642Z,100424.88
2022-11-08T02:37:14.169Z,100431.52
2022-11-08T02:39:43.544Z,100431.67
2022-11-08T02:42:15.339Z,100429.45
2022-11-08T02:44:43.913Z,100428.77
2022-11-08T02:47:13.234Z,100430.14
2022-11-08T02:49:41.627Z,100424.85
2022-11-08T02:52:12.395Z,100424.16
2022-11-08T02:54:40.666Z,100427.91
2022-11-08T02:57:09.190Z,100430.64
2022-11-08T02:59:38.877Z,100428.77
2022-11-08T03:02:14.144Z,100430.81
2022-11-08T03:04:42.695Z,100427.73
2022-11-08T03:07:11.129Z,100425.17
2022-11-08T03:09:39.568Z,100426.89
2022-11-08T03:12:08.764Z,100431.31
2022-11-08T03:14:37.315Z,100435.58
2022-11-08T03:17:05.891Z,100433.02
2022-11-08T03:19:34.671Z,100436.76
2022-11-08T03:22:03.253Z,100430.63
2022-11-08T03:24:31.704Z,100431.64
2022-11-08T03:27:00.450Z,100433.35
2022-11-08T03:29:28.886Z,100434.20
2022-11-08T03:31:57.715Z,100439.66
2022-11-08T03:34:26.354Z,100442.73
2022-11-08T03:36:55.248Z,100440.02
2022-11-08T03:39:23.628Z,100442.74
2022-11-08T03:41:52.444Z,100443.94
2022-11-08T03:44:21.092Z,100442.74
2022-11-08T03:46:49.650Z,100447.35
2022-11-08T03:49:18.004Z,100452.47
2022-11-08T03:51:46.585Z,100453.84
2022-11-08T03:54:15.935Z,100452.48
2022-11-08T03:56:44.595Z,100449.92
2022-11-08T03:59:13.486Z,100453.67
2022-11-08T04:01:41.958Z,100453.33
2022-11-08T04:04:10.560Z,100454.53
2022-11-08T04:06:39.322Z,100450.60
2022-11-08T04:09:08.074Z,100446.85
2022-11-08T04:11:54.870Z,100440.54
2022-11-08T04:14:41.779Z,100437.98
2022-11-08T04:17:10.044Z,100435.61
2022-11-08T04:19:57.366Z,100434.40
2022-11-08T04:22:25.976Z,100437.66
2022-11-08T04:24:54.774Z,100435.79
2022-11-08T04:27:23.085Z,100435.11
2022-11-08T04:29:51.416Z,100436.81
2022-11-08T04:32:20.096Z,100433.40
2022-11-08T04:34:48.468Z,100437.32
2022-11-08T04:37:16.747Z,100440.91
2022-11-08T04:39:45.393Z,100438.52
2022-11-08T04:42:14.404Z,100438.52
2022-11-08T04:44:42.716Z,100433.91
2022-11-08T04:47:10.976Z,100434.94
2022-11-08T04:49:39.224Z,100432.73
2022-11-08T04:52:07.546Z,100434.43
2022-11-08T04:54:37.239Z,100434.42
2022-11-08T04:57:06.293Z,100438.02
2022-11-08T04:59:34.795Z,100437.85
2022-11-08T05:02:03.440Z,100433.95
2022-11-08T05:04:32.193Z,100432.40
2022-11-08T05:07:00.984Z,100431.21
2022-11-08T05:09:29.326Z,100436.68
2022-11-08T05:11:57.918Z,100436.70
2022-11-08T05:14:26.364Z,100437.37
2022-11-08T05:16:54.782Z,100437.55
2022-11-08T05:19:40.439Z,100432.10
2022-11-08T05:22:27.856Z,100433.80
2022-11-08T05:24:56.770Z,100434.14
2022-11-08T05:27:25.516Z,100441.31
2022-11-08T05:29:54.025Z,100448.14
2022-11-08T05:32:22.718Z,100447.63
2022-11-08T05:34:50.987Z,100451.72
2022-11-08T05:37:19.461Z,100454.27
2022-11-08T05:39:47.872Z,100457.67
2022-11-08T05:42:28.991Z,100460.41
2022-11-08T05:44:57.690Z,100458.53
2022-11-08T05:47:26.339Z,100460.23
2022-11-08T05:49:54.930Z,100464.15
2022-11-08T05:52:24.161Z,100462.97
2022-11-08T05:55:17.526Z,100461.95
2022-11-08T05:57:46.426Z,100462.95
2022-11-08T06:00:16.384Z,100460.41
2022-11-08T06:02:45.302Z,100465.17
2022-11-08T06:05:13.735Z,100468.26
2022-11-08T06:07:42.126Z,100468.25
2022-11-08T06:10:12.029Z,100468.24
2022-11-08T06:12:41.634Z,100466.54
2022-11-08T06:15:11.242Z,100465.34
2022-11-08T06:17:40.380Z,100465.50
2022-11-08T06:20:12.793Z,100471.64
2022-11-08T06:22:42.838Z,100471.28
2022-11-08T06:25:11.923Z,100474.84
2022-11-08T06:27:40.521Z,100471.60
2022-11-08T06:30:11.546Z,100472.43
2022-11-08T06:32:40.803Z,100471.38
2022-11-08T06:35:10.265Z,100471.58
2022-11-08T06:37:38.650Z,100468.39
2022-11-08T06:40:10.835Z,100468.02
2022-11-08T06:42:39.711Z,100465.71
2022-11-08T06:45:12.138Z,100469.44
2022-11-08T06:47:40.605Z,100473.55
2022-11-08T06:50:09.641Z,100472.19
2022-11-08T06:52:40.284Z,100474.14
2022-11-08T06:55:09.301Z,100473.73
2022-11-08T06:57:38.088Z,100473.10
2022-11-08T07:00:09.202Z,100478.10
2022-11-08T07:02:38.193Z,100477.27
2022-11-08T07:05:08.254Z,100483.59
2022-11-08T07:07:37.274Z,100491.95
2022-11-08T07:10:08.140Z,100490.18
2022-11-08T07:12:37.066Z,100490.96
2022-11-08T07:15:07.000Z,100489.49
2022-11-08T07:17:38.690Z,100490.94
2022-11-08T07:20:10.319Z,100495.41
2022-11-08T07:22:38.806Z,100495.79
2022-11-08T07:25:09.204Z,100500.42
2022-11-08T07:27:38.535Z,100498.70
2022-11-08T07:30:09.364Z,100500.69
2022-11-08T07:32:38.171Z,100498.55
2022-11-08T07:35:08.861Z,100498.98
2022-11-08T07:37:37.630Z,100498.52
2022-11-08T07:40:09.140Z,100498.84
2022-11-08T07:43:09.473Z,100497.36
2022-11-08T07:45:29.583Z,100493.84
2022-11-08T07:48:09.486Z,100492.46
2022-11-08T07:50:43.111Z,100495.62
2022-11-08T07:53:12.003Z,100494.19
2022-11-08T07:55:41.514Z,100490.94
2022-11-08T07:58:11.514Z,100491.75
2022-11-08T08:00:42.346Z,100491.02
2022-11-08T08:03:13.745Z,100491.20
2022-11-08T08:05:45.100Z,100484.30
2022-11-08T08:08:19.092Z,100483.18
2022-11-08T08:10:48.513Z,100479.07
2022-11-08T08:13:17.752Z,100476.45
2022-11-08T08:15:48.573Z,100474.25
2022-11-08T08:18:20.328Z,100474.58
2022-11-08T08:20:48.734Z,100478.09
2022-11-08T08:23:18.118Z,100477.50
2022-11-08T08:25:46.888Z,100474.59
2022-11-08T08:28:15.623Z,100475.35
2022-11-08T08:30:44.032Z,100474.55
2022-11-08T08:33:31.394Z,100476.28
2022-11-08T08:36:01.583Z,100475.30
2022-11-08T08:38:30.811Z,100475.20
2022-11-08T08:41:00.587Z,100477.05
2022-11-08T08:43:31.755Z,100477.20
2022-11-08T08:46:01.020Z,100477.96
2022-11-08T08:48:44.496Z,100476.13
2022-11-08T08:51:13.299Z,100476.97
2022-11-08T08:53:41.730Z,100479.19
2022-11-08T08:56:10.946Z,100477.09
2022-11-08T08:58:39.680Z,100479.09
2022-11-08T09:03:58.667Z,100481.40
2022-11-08T09:06:27.299Z,100481.53
2022-11-08T09:08:55.985Z,100478.80
2022-11-08T09:11:24.427Z,100474.68
2022-11-08T09:13:52.990Z,100478.35
2022-11-08T09:16:21.801Z,100480.13
2022-11-08T09:18:50.300Z,100474.80
2022-11-08T09:21:18.816Z,100476.00
2022-11-08T09:23:47.542Z,100482.20
2022-11-08T09:26:16.317Z,100477.88
2022-11-08T09:28:45.051Z,100480.67
2022-11-08T09:31:13.829Z,100482.66
2022-11-08T09:33:42.992Z,100483.20
2022-11-08T09:36:14.061Z,100483.92
2022-11-08T09:38:42.835Z,100487.06
2022-11-08T09:41:32.553Z,100487.55
2022-11-08T09:44:18.110Z,100484.19
2022-11-08T09:46:53.048Z,100485.16
2022-11-08T09:49:32.310Z,100487.08
2022-11-08T09:52:03.587Z,100488.30
2022-11-08T09:54:39.130Z,100482.77
2022-11-08T09:57:18.028Z,100478.10
2022-11-08T09:59:50.988Z,100481.94
2022-11-08T10:02:32.100Z,100478.96
2022-11-08T10:05:04.799Z,100482.66
2022-11-08T10:08:01.307Z,100476.30
2022-11-08T10:10:40.527Z,100477.80
2022-11-08T10:13:18.178Z,100477.27
2022-11-08T10:16:00.820Z,100467.24
2022-11-08T10:18:47.256Z,100470.23
2022-11-08T10:21:31.931Z,100466.44
2022-11-08T10:24:10.359Z,100465.36
2022-11-08T10:26:44.752Z,100469.86
2022-11-08T10:29:19.164Z,100467.91
2022-11-08T10:31:52.949Z,100467.21
2022-11-08T10:34:26.579Z,100470.52
2022-11-08T10:37:03.293Z,100468.22
2022-11-08T10:39:39.245Z,100466.89
2022-11-08T10:42:13.626Z,100467.18
2022-11-08T10:44:42.909Z,100466.38
2022-11-08T10:47:19.533Z,100459.55
2022-11-08T10:49:48.003Z,100453.97
2022-11-08T10:52:20.315Z,100455.65
2022-11-08T10:54:50.667Z,100455.80
2022-11-08T10:57:26.692Z,100451.16
2022-11-08T10:59:56.690Z,100446.82
2022-11-08T11:02:29.485Z,100439.67
2022-11-08T11:05:22.423Z,100439.71
2022-11-08T11:08:02.159Z,100439.71
2022-11-08T11:10:33.620Z,100439.66
2022-11-08T11:13:06.447Z,100436.13
2022-11-08T11:15:37.879Z,100433.41
2022-11-08T11:18:24.528Z,100430.61
2022-11-08T11:21:03.243Z,100426.48
2022-11-08T11:23:37.902Z,100424.81
2022-11-08T11:26:13.832Z,100422.33
2022-11-08T11:29:14.576Z,100422.42
2022-11-08T11:31:45.589Z,100420.52
2022-11-08T11:34:31.849Z,100419.30
2022-11-08T11:37:05.851Z,100418.36
2022-11-08T11:39:43.860Z,100419.31
2022-11-08T11:42:47.516Z,100418.21
2022-11-08T11:45:17.807Z,100421.09
2022-11-08T11:47:50.666Z,100421.85
2022-11-08T11:50:29.591Z,100419.75
2022-11-08T11:53:00.469Z,100418.73
2022-11-08T11:55:42.213Z,100421.13
2022-11-08T11:58:27.090Z,100422.46
2022-11-08T12:01:02.109Z,100422.12
2022-11-08T12:03:44.194Z,100424.66
2022-11-08T12:06:28.243Z,100423.12
2022-11-08T12:09:09.599Z,100422.59
2022-11-08T12:11:48.013Z,100427.73
2022-11-08T12:14:34.431Z,100427.05
2022-11-08T12:17:17.123Z,100421.97
2022-11-08T12:20:04.368Z,100427.25
2022-11-08T12:23:17.669Z,100419.91
2022-11-08T12:26:01.234Z,100419.91
2022-11-08T12:28:51.128Z,100419.71
2022-11-08T12:31:33.823Z,100423.29
2022-11-08T12:34:24.412Z,100415.23
2022-11-08T12:37:05.929Z,100414.15
2022-11-08T12:39:47.120Z,100407.63
2022-11-08T12:42:32.483Z,100407.48
2022-11-08T12:45:22.764Z,100412.80
2022-11-08T12:48:03.169Z,100409.18
2022-11-08T12:50:45.569Z,100405.23
2022-11-08T12:53:43.096Z,100403.27
2022-11-08T12:56:21.237Z,100401.61
2022-11-08T12:58:54.985Z,100400.04
2022-11-08T13:01:30.180Z,100404.82
2022-11-08T13:10:54.122Z,100400.55
2022-11-08T13:13:33.048Z,100401.11
2022-11-08T13:16:16.580Z,100401.81
2022-11-08T13:18:50.086Z,100397.60
2022-11-08T13:21:40.262Z,100392.36
2022-11-08T13:24:45.305Z,100389.68
2022-11-08T13:27:40.810Z,100385.34
2022-11-08T13:30:37.415Z,100383.23
2022-11-08T13:33:16.602Z,100379.54
2022-11-08T13:35:58.401Z,100378.23
2022-11-08T13:38:43.801Z,100381.81
2022-11-08T13:41:17.894Z,100382.41
2022-11-08T13:43:50.115Z,100380.10
2022-11-08T13:46:49.359Z,100379.89
2022-11-08T13:49:22.717Z,100383.43
2022-11-08T13:52:30.792Z,100382.86
2022-11-08T13:55:01.698Z,100383.12
2022-11-08T13:58:00.745Z,100386.64
2022-11-08T14:00:49.990Z,100385.88
2022-11-08T14:03:58.507Z,100390.65
2022-11-08T14:06:37.254Z,100388.55
2022-11-08T14:09:22.399Z,100384.35
2022-11-08T14:12:02.931Z,100385.49
2022-11-08T14:14:50.046Z,100387.48
2022-11-08T14:17:34.969Z,100384.67
2022-11-08T14:20:27.886Z,100383.25
2022-11-08T14:23:02.771Z,100378.70
2022-11-08T14:25:38.834Z,100383.10
2022-11-08T14:28:24.669Z,100381.34
2022-11-08T14:30:58.922Z,100381.44
2022-11-08T14:33:31.534Z,100386.05
2022-11-08T14:36:07.437Z,100389.09
2022-11-08T14:38:47.514Z,100392.50
2022-11-08T14:41:22.042Z,100390.74
2022-11-08T14:43:55.334Z,100393.80
2022-11-08T14:46:30.991Z,100397.73
2022-11-08T14:49:11.763Z,100394.95
2022-11-08T14:51:44.956Z,100393.54
2022-11-08T14:54:21.153Z,100393.17
2022-11-08T14:56:52.310Z,100393.65
2022-11-08T14:59:24.869Z,100398.43
2022-11-08T15:02:01.383Z,100401.67
2022-11-08T15:04:33.061Z,100395.13
2022-11-08T15:07:04.124Z,100389.59
2022-11-08T15:09:36.923Z,100392.27
2022-11-08T15:12:15.933Z,100391.20
2022-11-08T15:14:53.416Z,100389.81
2022-11-08T15:17:36.745Z,100392.52
2022-11-08T15:20:23.143Z,100393.33
2022-11-08T15:22:56.712Z,100399.98
2022-11-08T15:25:35.599Z,100400.07
2022-11-08T15:28:23.291Z,100395.21
2022-11-08T15:30:58.392Z,100389.30
2022-11-08T15:33:34.711Z,100387.91
2022-11-08T15:36:13.485Z,100385.30
2022-11-08T15:38:49.073Z,100384.90
2022-11-08T15:41:34.617Z,100384.30
2022-11-08T15:44:17.175Z,100382.87
2022-11-08T15:46:48.103Z,100381.95
2022-11-08T15:49:25.033Z,100381.52
2022-11-08T15:51:58.879Z,100379.76
2022-11-08T15:54:30.757Z,100382.05
2022-11-08T15:57:01.813Z,100380.77
2022-11-08T15:59:36.099Z,100381.88
2022-11-08T16:02:15.040Z,100378.36
2022-11-08T16:04:46.091Z,100382.23
2022-11-08T16:07:17.270Z,100378.73
2022-11-08T16:09:48.584Z,100374.52
2022-11-08T16:12:19.912Z,100372.86
2022-11-08T16:14:52.175Z,100381.18
2022-11-08T16:17:23.141Z,100379.35
2022-11-08T16:19:54.334Z,100382.84
2022-11-08T16:22:28.242Z,100385.48
2022-11-08T16:24:59.761Z,100388.11
2022-11-08T16:27:30.738Z,100391.91
2022-11-08T16:30:02.111Z,100389.55
2022-11-08T16:32:33.400Z,100394.05
2022-11-08T16:35:04.538Z,100390.32
2022-11-08T16:37:35.446Z,100392.08
2022-11-08T16:40:14.180Z,100390.05
2022-11-08T16:42:49.349Z,100396.23
2022-11-08T16:45:27.984Z,100395.42
2022-11-08T16:48:15.007Z,100395.30
2022-11-08T16:50:46.610Z,100394.48
2022-11-08T16:53:22.430Z,100391.78
2022-11-08T16:55:53.270Z,100394.56
2022-11-08T16:58:24.061Z,100396.49
2022-11-08T17:00:55.768Z,100393.96
2022-11-08T17:03:29.747Z,100392.98
2022-11-08T17:06:01.151Z,100390.79
2022-11-08T17:08:32.199Z,100393.73
2022-11-08T17:11:03.544Z,100392.92
2022-11-08T17:13:40.060Z,100391.58
2022-11-08T17:16:14.438Z,100387.34
2022-11-08T17:18:49.776Z,100388.21
2022-11-08T17:24:21.550Z,100387.30
2022-11-08T17:26:53.656Z,100384.08
2022-11-08T17:29:24.576Z,100384.77
2022-11-08T17:31:55.495Z,100384.63
2022-11-08T17:34:29.621Z,100386.71
2022-11-08T17:37:00.530Z,100386.23
2022-11-08T17:39:32.372Z,100384.36
2022-11-08T17:42:03.589Z,100387.66
2022-11-08T17:44:34.497Z,100387.52
2022-11-08T17:47:06.218Z,100391.80
2022-11-08T17:49:42.801Z,100391.31
2022-11-08T17:52:16.237Z,100388.61
2022-11-08T17:54:52.640Z,100389.67
2022-11-08T17:57:24.039Z,100391.59
2022-11-08T17:59:54.850Z,100390.23
2022-11-08T18:02:28.287Z,100393.00
2022-11-08T18:04:59.426Z,100390.14
2022-11-08T18:07:47.616Z,100393.42
2022-11-08T18:10:18.662Z,100395.53
2022-11-08T18:12:50.597Z,100393.52
2022-11-08T18:15:22.275Z,100396.11
2022-11-08T18:17:53.662Z,100394.09
2022-11-08T18:20:25.192Z,100393.44
2022-11-08T18:22:58.696Z,100393.80
2022-11-08T18:25:31.166Z,100390.77
2022-11-08T18:28:05.513Z,100388.73
2022-11-08T18:31:08.075Z,100393.21
2022-11-08T18:33:42.122Z,100391.02
2022-11-08T18:36:16.811Z,100389.70
2022-11-08T18:38:49.404Z,100389.89
2022-11-08T18:41:26.262Z,100386.02
2022-11-08T18:44:46.908Z,100387.09
2022-11-08T18:47:18.224Z,100383.55
2022-11-08T18:49:49.653Z,100381.88
2022-11-08T18:52:20.902Z,100379.35
2022-11-08T18:54:52.917Z,100378.19
2022-11-08T18:57:25.416Z,100376.86
2022-11-08T19:00:00.868Z,100380.67
2022-11-08T19:02:42.746Z,100380.36
2022-11-08T19:05:15.148Z,100385.70
2022-11-08T19:07:46.223Z,100384.89
2022-11-08T19:10:17.563Z,100388.70
2022-11-08T19:12:49.325Z,100392.48
2022-11-08T19:15:22.428Z,100393.05
2022-11-08T19:17:54.083Z,100398.03
2022-11-08T19:20:38.877Z,100399.45
2022-11-08T19:23:09.988Z,100399.14
2022-11-08T19:25:41.035Z,100401.91
2022-11-08T19:28:12.228Z,100399.91
2022-11-08T19:30:51.645Z,100403.36
2022-11-08T19:33:25.265Z,100402.52
2022-11-08T19:35:56.781Z,100402.02
2022-11-08T19:38:28.562Z,100403.24
2022-11-08T19:41:05.479Z,100403.61
2022-11-08T19:43:38.835Z,100405.34
2022-11-08T19:46:12.699Z,100408.25
2022-11-08T19:48:45.683Z,100405.38
2022-11-08T19:51:19.222Z,100400.96
2022-11-08T19:53:50.868Z,100406.79
2022-11-08T19:56:32.874Z,100406.46
2022-11-08T19:59:09.891Z,100410.59
2022-11-08T20:01:41.066Z,100408.05
2022-11-08T20:04:14.545Z,100407.03
2022-11-08T20:06:46.090Z,100410.98
2022-11-08T20:09:19.972Z,100408.44
2022-11-08T20:11:51.148Z,100414.42
2022-11-08T20:14:22.217Z,100414.61
2022-11-08T20:16:56.560Z,100414.96
2022-11-08T20:19:31.286Z,100417.20
2022-11-08T20:22:06.498Z,100414.29
2022-11-08T20:24:36.355Z,100414.98
2022-11-08T20:27:07.392Z,100412.44
2022-11-08T20:29:38.589Z,100410.58
2022-11-08T20:32:12.912Z,100409.39
2022-11-08T20:34:45.998Z,100406.49
2022-11-08T20:37:17.768Z,100404.98
2022-11-08T20:39:49.527Z,100400.21
2022-11-08T20:42:23.125Z,100399.87
2022-11-08T20:44:54.423Z,100397.31
2022-11-08T20:47:25.629Z,100397.84
2022-11-08T20:49:57.373Z,100398.52
2022-11-08T20:52:28.521Z,100396.48
2022-11-08T20:55:04.125Z,100395.48
2022-11-08T20:57:40.826Z,100395.65
2022-11-08T21:00:15.849Z,100393.95
2022-11-08T21:02:52.555Z,100390.39
2022-11-08T21:05:24.362Z,100395.50
2022-11-08T21:08:56.166Z,100394.48
2022-11-08T21:10:56.332Z,100388.52
2022-11-08T21:13:29.485Z,100388.70
2022-11-08T21:16:26.787Z,100389.05
2022-11-08T21:18:56.242Z,100390.77
2022-11-08T21:21:27.566Z,100390.09
2022-11-08T21:23:58.522Z,100394.52
2022-11-08T21:26:29.381Z,100395.57
2022-11-08T21:29:00.513Z,100391.98
2022-11-08T21:31:31.860Z,100394.05
2022-11-08T21:34:02.905Z,100391.66
2022-11-08T21:36:34.055Z,100393.36
2022-11-08T21:39:40.626Z,100393.55
2022-11-08T21:42:14.034Z,100393.04
2022-11-08T21:44:45.321Z,100388.63
2022-11-08T21:47:16.362Z,100391.52
2022-11-08T21:49:57.946Z,100387.77
2022-11-08T21:52:28.922Z,100387.77
2022-11-08T21:55:47.836Z,100389.15
2022-11-08T21:58:22.323Z,100389.14
2022-11-08T22:00:54.427Z,100391.54
2022-11-08T22:03:25.290Z,100389.67
2022-11-08T22:05:56.202Z,100388.98
2022-11-08T22:08:27.041Z,100394.77
2022-11-08T22:10:57.734Z,100396.49
2022-11-08T22:13:28.442Z,100395.81
2022-11-08T22:15:59.145Z,100394.96
2022-11-08T22:18:58.827Z,100387.65
2022-11-08T22:21:39.038Z,100388.15
2022-11-08T22:24:11.733Z,100389.86
2022-11-08T22:26:42.977Z,100392.23
2022-11-08T22:29:14.258Z,100390.19
2022-11-08T22:31:45.859Z,100391.39
2022-11-08T22:34:16.748Z,100389.86
2022-11-08T22:36:47.838Z,100396.66
2022-11-08T22:39:19.996Z,100396.17
2022-11-08T22:41:52.281Z,100395.14
2022-11-08T22:44:23.220Z,100398.90
2022-11-08T22:46:53.968Z,100401.28
2022-11-08T22:49:25.439Z,100401.11
2022-11-08T22:51:56.201Z,100400.44
2022-11-08T22:54:28.309Z,100400.27
2022-11-08T22:56:59.068Z,100399.23
2022-11-08T22:59:29.876Z,100397.86
2022-11-08T23:02:00.615Z,100401.30
2022-11-08T23:04:33.622Z,100394.47
2022-11-08T23:07:04.361Z,100398.73
2022-11-08T23:09:35.087Z,100396.84
2022-11-08T23:12:24.284Z,100393.41
2022-11-08T23:15:13.165Z,100388.80
2022-11-08T23:17:44.006Z,100389.48
2022-11-08T23:20:32.434Z,100387.45
2022-11-08T23:23:20.766Z,100379.95
2022-11-08T23:25:56.013Z,100382.85
2022-11-08T23:28:45.696Z,100383.53
2022-11-08T23:31:30.533Z,100385.05
2022-11-08T23:34:01.688Z,100387.61
2022-11-08T23:36:32.485Z,100383.70
2022-11-08T23:39:03.398Z,100386.92
2022-11-08T23:41:52.079Z,100386.75
2022-11-08T23:44:26.822Z,100387.79
2022-11-08T23:46:59.380Z,100386.41
2022-11-08T23:49:30.613Z,100383.18
2022-11-08T23:52:01.640Z,100377.89
2022-11-08T23:54:32.980Z,100374.66
2022-11-08T23:57:03.922Z,100373.80
2022-11-08T23:59:35.515Z,100373.45
